Time;durP1;ratioP1;P1;durP2;ratioP2;P2;SDS_P1;SDS_P2;PMS_P1;PMS_P2;Temp;Humidity;BMP_temperature;BMP_pressure;BME280_temperature;BME280_humidity;BME280_pressure;Samples;Min_cycle;Max_cycle;Signal;HPM_P1;HPM_P2
2021/05/26 00:00:46;;;;;;;11.88;4.90;;;7.80;99.90;;;;;;4784728;29;20406;-81
2021/05/26 00:07:07;;;;;;;13.77;5.97;;;7.70;99.90;;;;;;4794001;29;20054;-81
2021/05/26 00:17:50;;;;;;;14.07;5.90;;;7.70;99.90;;;;;;4824512;29;20107;-82
2021/05/26 00:20:46;;;;;;;13.40;6.18;;;7.70;99.90;;;;;;4829458;29;20064;-81
2021/05/26 00:31:22;;;;;;;9.90;6.07;;;7.70;99.90;;;;;;4884593;29;20060;-82
2021/05/26 00:34:49;;;;;;;15.65;6.20;;;7.80;99.90;;;;;;4845861;29;20174;-81
2021/05/26 00:37:33;;;;;;;12.52;6.50;;;7.80;99.90;;;;;;4885781;29;20101;-80
2021/05/26 00:41:01;;;;;;;17.35;6.85;;;7.90;99.90;;;;;;4846734;29;20064;-81
2021/05/26 00:44:24;;;;;;;14.50;6.07;;;8.00;99.90;;;;;;4840565;29;20291;-82
2021/05/26 00:47:00;;;;;;;20.42;6.30;;;8.00;99.90;;;;;;4886757;29;20055;-82
2021/05/26 00:50:16;;;;;;;25.17;6.80;;;8.00;99.90;;;;;;4907704;29;20143;-80
2021/05/26 00:53:18;;;;;;;20.00;6.25;;;8.10;99.90;;;;;;4908570;29;20055;-84
2021/05/26 00:56:22;;;;;;;15.23;6.20;;;8.10;99.90;;;;;;4934269;28;20050;-81
2021/05/26 00:59:22;;;;;;;13.95;6.70;;;8.00;99.90;;;;;;4918524;29;20087;-80
2021/05/26 01:02:08;;;;;;;14.30;5.95;;;7.90;99.90;;;;;;4922327;28;20149;-80
2021/05/26 01:04:43;;;;;;;11.38;6.00;;;7.90;99.90;;;;;;4935542;29;20059;-81
2021/05/26 01:07:38;;;;;;;12.30;6.07;;;7.80;99.90;;;;;;4934260;28;20110;-80
2021/05/26 01:10:24;;;;;;;12.90;6.88;;;7.70;99.90;;;;;;4951420;28;20055;-79
2021/05/26 01:16:55;;;;;;;17.10;6.85;;;7.60;99.90;;;;;;4967694;28;20081;-81
2021/05/26 01:19:52;;;;;;;14.85;7.03;;;7.60;99.90;;;;;;4928943;28;20055;-81
2021/05/26 01:23:27;;;;;;;13.90;6.13;;;7.50;99.90;;;;;;4968792;28;20076;-80
2021/05/26 01:26:27;;;;;;;10.55;5.90;;;7.40;99.90;;;;;;4964971;28;20057;-81
2021/05/26 01:30:06;;;;;;;12.68;6.80;;;7.30;99.90;;;;;;4871852;29;20068;-80
2021/05/26 01:33:43;;;;;;;16.15;6.97;;;7.20;99.90;;;;;;4835112;29;20622;-80
2021/05/26 01:36:35;;;;;;;16.83;6.80;;;7.20;99.90;;;;;;4839679;29;20640;-80
2021/05/26 01:39:36;;;;;;;23.70;6.57;;;7.20;99.90;;;;;;4783229;29;20415;-80
2021/05/26 01:42:39;;;;;;;16.75;7.45;;;7.10;99.90;;;;;;4835643;29;20081;-80
2021/05/26 01:45:20;;;;;;;13.73;7.18;;;7.00;99.90;;;;;;4745575;30;20052;-80
2021/05/26 01:48:40;;;;;;;16.75;7.10;;;7.00;99.90;;;;;;4746361;30;20056;-79
2021/05/26 01:51:23;;;;;;;13.77;7.15;;;7.00;99.90;;;;;;4786254;29;20066;-80
2021/05/26 01:54:09;;;;;;;18.02;7.30;;;6.90;99.90;;;;;;4799987;29;20058;-80
2021/05/26 01:57:33;;;;;;;11.70;7.28;;;6.90;99.90;;;;;;4808242;29;20451;-80
2021/05/26 02:00:31;;;;;;;15.45;7.60;;;6.80;99.90;;;;;;4838524;29;20105;-80
2021/05/26 02:03:44;;;;;;;22.27;7.63;;;6.80;99.90;;;;;;4874597;29;20072;-81
2021/05/26 02:06:59;;;;;;;16.95;7.68;;;6.70;99.90;;;;;;4873010;29;20161;-80
2021/05/26 02:12:19;;;;;;;25.50;8.52;;;6.70;99.90;;;;;;4832427;29;20068;-81
2021/05/26 02:25:08;;;;;;;18.25;8.82;;;6.60;99.90;;;;;;4798553;29;20085;-80
2021/05/26 02:38:57;;;;;;;17.88;8.88;;;6.50;99.90;;;;;;4806896;29;20140;-80
2021/05/26 02:42:07;;;;;;;26.20;10.70;;;6.60;99.90;;;;;;4827862;29;20058;-80
2021/05/26 02:44:33;;;;;;;20.75;9.85;;;6.60;99.90;;;;;;4829636;29;20109;-80
2021/05/26 02:47:32;;;;;;;18.50;10.50;;;6.60;99.90;;;;;;4829814;29;20061;-84
2021/05/26 02:50:42;;;;;;;33.85;11.00;;;6.60;99.90;;;;;;4816445;29;20061;-80
2021/05/26 02:53:49;;;;;;;19.88;9.75;;;6.60;99.90;;;;;;4772177;29;20062;-81
2021/05/26 02:56:35;;;;;;;16.23;9.48;;;6.70;99.90;;;;;;4801416;29;20059;-80
2021/05/26 02:59:03;;;;;;;31.90;10.57;;;6.70;99.90;;;;;;4826736;29;20053;-80
2021/05/26 03:01:30;;;;;;;14.82;9.75;;;6.70;99.90;;;;;;4843107;29;20045;-82
2021/05/26 03:04:23;;;;;;;18.88;10.15;;;6.70;99.90;;;;;;4900325;29;20079;-84
2021/05/26 03:07:04;;;;;;;19.63;10.02;;;6.80;99.90;;;;;;4914549;28;20126;-80
2021/05/26 03:09:31;;;;;;;20.50;9.93;;;6.80;99.90;;;;;;4947512;29;20059;-80
2021/05/26 03:12:03;;;;;;;17.70;10.73;;;6.90;99.90;;;;;;4932125;29;20057;-80
2021/05/26 03:14:41;;;;;;;24.65;11.38;;;6.90;99.90;;;;;;4933620;28;20138;-80
2021/05/26 03:17:08;;;;;;;20.90;11.80;;;7.00;99.90;;;;;;4946176;29;20460;-81
2021/05/26 03:19:34;;;;;;;24.05;11.25;;;7.10;99.90;;;;;;4946901;28;20433;-81
2021/05/26 03:22:00;;;;;;;22.63;11.57;;;7.10;99.90;;;;;;4924980;29;20085;-80
2021/05/26 03:24:28;;;;;;;21.67;11.98;;;7.20;99.90;;;;;;4946856;28;20058;-80
2021/05/26 03:27:15;;;;;;;21.42;12.73;;;7.20;99.90;;;;;;4941157;29;20056;-83
2021/05/26 03:29:51;;;;;;;19.27;11.98;;;7.20;99.90;;;;;;4943894;28;20051;-81
2021/05/26 03:32:24;;;;;;;23.13;12.18;;;7.20;99.90;;;;;;4918897;28;20454;-79
2021/05/26 03:35:12;;;;;;;23.02;10.93;;;7.20;99.90;;;;;;4898148;29;20075;-80
2021/05/26 03:37:40;;;;;;;21.25;12.18;;;7.20;99.90;;;;;;4913365;29;20118;-82
2021/05/26 03:40:24;;;;;;;27.08;12.55;;;7.20;99.90;;;;;;4922879;29;20094;-81
2021/05/26 03:42:51;;;;;;;25.95;11.63;;;7.20;99.90;;;;;;4963244;28;20143;-81
2021/05/26 03:45:17;;;;;;;25.52;11.52;;;7.30;99.90;;;;;;4971159;28;20501;-80
2021/05/26 03:47:43;;;;;;;21.45;11.75;;;7.30;99.90;;;;;;4983065;28;20133;-80
2021/05/26 03:50:12;;;;;;;22.25;12.93;;;7.30;99.90;;;;;;4975543;28;20050;-80
2021/05/26 03:52:49;;;;;;;20.60;11.63;;;7.40;99.90;;;;;;4976724;28;20399;-81
2021/05/26 03:55:19;;;;;;;24.67;12.85;;;7.40;99.90;;;;;;4975872;28;20065;-84
2021/05/26 03:57:45;;;;;;;22.38;13.57;;;7.50;99.90;;;;;;5009641;28;20553;-80
2021/05/26 04:00:14;;;;;;;20.17;13.27;;;7.60;99.90;;;;;;5008869;28;20602;-80
2021/05/26 04:03:09;;;;;;;21.30;12.55;;;7.70;99.90;;;;;;4950723;29;20051;-80
2021/05/26 04:05:35;;;;;;;27.98;13.48;;;7.90;99.90;;;;;;4940283;28;20635;-80
2021/05/26 04:08:14;;;;;;;24.52;13.25;;;7.90;99.90;;;;;;4991619;28;20050;-80
2021/05/26 04:10:49;;;;;;;25.55;13.70;;;8.00;99.90;;;;;;4970655;28;20050;-82
2021/05/26 04:13:16;;;;;;;23.02;12.75;;;8.10;99.90;;;;;;4969286;28;20493;-85
2021/05/26 04:15:51;;;;;;;33.47;13.55;;;8.10;99.90;;;;;;4971946;28;20049;-81
2021/05/26 04:18:17;;;;;;;26.33;12.35;;;8.20;99.90;;;;;;4988984;28;20055;-84
2021/05/26 04:20:44;;;;;;;25.20;12.63;;;8.30;99.90;;;;;;4937630;28;20050;-81
2021/05/26 04:23:10;;;;;;;18.15;12.75;;;8.30;99.90;;;;;;4973989;28;20137;-81
2021/05/26 04:25:48;;;;;;;24.85;13.07;;;8.40;99.90;;;;;;4988517;28;20670;-81
2021/05/26 04:28:28;;;;;;;27.97;11.27;;;8.40;99.90;;;;;;4975154;28;20050;-83
2021/05/26 04:31:01;;;;;;;20.02;11.65;;;8.50;99.90;;;;;;4977298;28;20328;-82
2021/05/26 04:33:54;;;;;;;16.42;11.70;;;8.50;99.90;;;;;;5003118;28;20048;-82
2021/05/26 04:36:44;;;;;;;22.13;11.77;;;8.60;99.90;;;;;;5050054;28;20071;-80
2021/05/26 04:39:50;;;;;;;15.65;11.52;;;8.70;99.90;;;;;;4988006;28;20121;-80
2021/05/26 04:42:22;;;;;;;15.85;11.75;;;8.70;99.90;;;;;;4984642;28;20093;-83
2021/05/26 04:44:55;;;;;;;18.30;12.05;;;8.80;99.90;;;;;;4968207;28;20053;-79
2021/05/26 04:47:22;;;;;;;24.15;11.85;;;8.90;99.90;;;;;;4987074;28;20042;-82
2021/05/26 04:49:54;;;;;;;22.35;12.60;;;8.90;99.90;;;;;;4973026;28;20050;-79
2021/05/26 04:52:27;;;;;;;17.70;11.57;;;9.00;99.90;;;;;;4971549;28;20085;-83
2021/05/26 04:54:53;;;;;;;16.42;10.82;;;9.00;99.90;;;;;;4956345;28;20518;-79
2021/05/26 04:57:19;;;;;;;19.80;10.70;;;9.10;99.90;;;;;;4955973;28;20097;-81
2021/05/26 04:59:45;;;;;;;14.35;10.63;;;9.10;99.90;;;;;;4978311;28;20141;-79
2021/05/26 05:02:12;;;;;;;18.00;10.48;;;9.20;99.90;;;;;;4953292;28;20073;-80
2021/05/26 05:04:39;;;;;;;20.60;10.32;;;9.20;99.90;;;;;;4966034;28;20050;-79
2021/05/26 05:07:06;;;;;;;13.80;8.50;;;9.20;99.90;;;;;;4970385;28;20068;-80
2021/05/26 05:10:05;;;;;;;17.30;9.00;;;9.30;99.90;;;;;;4989050;28;20895;-81
2021/05/26 05:13:05;;;;;;;12.85;8.40;;;9.30;99.90;;;;;;5007895;28;20053;-80
2021/05/26 05:15:37;;;;;;;15.80;7.60;;;9.40;99.90;;;;;;4990310;28;20064;-80
2021/05/26 05:18:21;;;;;;;12.20;7.13;;;9.40;99.90;;;;;;4979636;28;20077;-83
2021/05/26 05:21:00;;;;;;;14.07;7.40;;;9.40;99.90;;;;;;5002021;28;20506;-79
2021/05/26 05:23:31;;;;;;;11.30;7.72;;;9.50;99.90;;;;;;5007145;28;20426;-80
2021/05/26 05:26:06;;;;;;;13.18;6.90;;;9.50;99.90;;;;;;4973909;28;20256;-80
2021/05/26 05:28:32;;;;;;;17.83;7.57;;;9.50;99.90;;;;;;5006870;28;20180;-81
2021/05/26 05:30:57;;;;;;;11.18;6.55;;;9.60;99.90;;;;;;5026499;28;20064;-81
2021/05/26 05:33:23;;;;;;;15.07;6.85;;;9.70;99.90;;;;;;5031689;28;20044;-86
2021/05/26 05:35:49;;;;;;;12.40;6.55;;;9.70;99.90;;;;;;5031742;28;20049;-81
2021/05/26 05:38:15;;;;;;;13.88;6.38;;;9.80;99.90;;;;;;5015033;28;20076;-80
2021/05/26 05:40:44;;;;;;;14.18;7.07;;;9.90;99.90;;;;;;4995658;28;20073;-80
2021/05/26 05:43:12;;;;;;;12.15;5.50;;;9.90;99.90;;;;;;5028587;28;20128;-80
2021/05/26 05:45:44;;;;;;;14.35;6.03;;;10.00;99.90;;;;;;5031959;28;20657;-80
2021/05/26 05:48:12;;;;;;;8.95;5.70;;;10.10;99.90;;;;;;5031450;28;20052;-80
2021/05/26 05:50:39;;;;;;;10.60;5.43;;;10.20;99.90;;;;;;5031338;28;20060;-81
2021/05/26 05:53:05;;;;;;;12.60;6.13;;;10.10;99.90;;;;;;5031232;28;20098;-81
2021/05/26 05:55:31;;;;;;;15.10;5.75;;;10.20;99.90;;;;;;5014218;28;20049;-80
2021/05/26 05:58:04;;;;;;;13.05;6.10;;;10.20;99.90;;;;;;5014958;28;20048;-80
2021/05/26 06:00:35;;;;;;;12.13;6.43;;;10.20;99.90;;;;;;5030740;28;20516;-80
2021/05/26 06:03:07;;;;;;;11.07;6.50;;;10.20;99.90;;;;;;4990807;28;20126;-80
2021/05/26 06:05:55;;;;;;;9.20;5.55;;;10.20;99.90;;;;;;4993321;28;20053;-80
2021/05/26 06:08:21;;;;;;;6.22;5.28;;;10.20;99.90;;;;;;4977095;28;20053;-79
2021/05/26 06:11:24;;;;;;;12.00;5.82;;;10.30;99.90;;;;;;4941799;28;20054;-80
2021/05/26 06:13:58;;;;;;;14.88;6.22;;;10.30;99.90;;;;;;4935495;28;20059;-80
2021/05/26 06:16:24;;;;;;;11.00;6.15;;;10.30;99.90;;;;;;4952158;28;20051;-80
2021/05/26 06:19:05;;;;;;;11.93;6.20;;;10.40;99.90;;;;;;4951070;28;20042;-79
2021/05/26 06:21:42;;;;;;;13.23;6.50;;;10.50;99.90;;;;;;4953267;28;20051;-80
2021/05/26 06:24:15;;;;;;;16.48;7.15;;;10.50;99.90;;;;;;4951403;28;20054;-80
2021/05/26 06:27:17;;;;;;;12.23;6.65;;;10.60;99.90;;;;;;4952038;28;20412;-79
2021/05/26 06:29:53;;;;;;;15.63;8.60;;;10.60;99.90;;;;;;5014595;28;20591;-80
2021/05/26 06:32:20;;;;;;;18.13;9.10;;;10.50;99.90;;;;;;5048093;28;20051;-79
2021/05/26 06:34:48;;;;;;;14.45;9.30;;;10.50;99.90;;;;;;4969843;28;20050;-80
2021/05/26 06:37:44;;;;;;;21.42;11.52;;;10.40;99.90;;;;;;4940311;29;20114;-80
2021/05/26 06:40:33;;;;;;;20.27;11.85;;;10.40;99.90;;;;;;4928442;29;20059;-80
2021/05/26 06:43:04;;;;;;;;;;;10.40;99.90;;;;;;4929512;29;20051;-81
2021/05/26 06:45:34;;;;;;;22.02;11.98;;;10.50;99.90;;;;;;4928247;29;20021;-79
2021/05/26 06:48:07;;;;;;;19.58;11.68;;;10.50;99.90;;;;;;4937982;29;20048;-79
2021/05/26 06:50:39;;;;;;;27.92;11.55;;;10.50;99.90;;;;;;4927493;29;20615;-79
2021/05/26 06:53:05;;;;;;;21.75;11.43;;;10.60;99.90;;;;;;4948483;28;20130;-79
2021/05/26 06:55:31;;;;;;;15.93;10.57;;;10.60;99.90;;;;;;4948608;28;20093;-82
2021/05/26 06:58:05;;;;;;;18.73;11.23;;;10.60;99.90;;;;;;4989904;28;20128;-80
2021/05/26 07:00:48;;;;;;;15.13;9.48;;;10.60;99.90;;;;;;4989788;28;20042;-79
2021/05/26 07:03:33;;;;;;;15.23;8.95;;;10.70;99.90;;;;;;4984495;28;20061;-82
2021/05/26 07:06:10;;;;;;;25.10;8.52;;;10.80;99.90;;;;;;4962146;28;20076;-79
2021/05/26 07:08:46;;;;;;;13.85;5.70;;;11.00;99.90;;;;;;5007107;28;20485;-80
2021/05/26 07:25:43;;;;;;;16.50;6.82;;;11.30;99.90;;;;;;4993314;28;20116;-82
2021/05/26 07:28:35;;;;;;;10.18;6.00;;;11.40;99.90;;;;;;5002526;28;20046;-80
2021/05/26 07:31:39;;;;;;;12.75;5.78;;;11.50;99.90;;;;;;4939186;28;20078;-82
2021/05/26 07:34:05;;;;;;;11.88;5.32;;;11.50;99.90;;;;;;4933718;29;20616;-80
2021/05/26 07:36:38;;;;;;;17.45;5.63;;;11.60;99.90;;;;;;4919033;29;20114;-82
2021/05/26 07:39:11;;;;;;;10.85;5.13;;;11.70;99.90;;;;;;4919664;29;20043;-80
2021/05/26 07:41:37;;;;;;;14.93;4.88;;;11.80;99.90;;;;;;4935316;29;20051;-81
2021/05/26 07:44:05;;;;;;;11.65;4.75;;;11.90;99.90;;;;;;4934393;28;20047;-81
2021/05/26 07:46:31;;;;;;;10.32;4.70;;;11.90;99.90;;;;;;4950984;28;20138;-79
2021/05/26 07:49:34;;;;;;;8.65;3.83;;;12.00;99.90;;;;;;4933877;29;20039;-79
2021/05/26 07:52:07;;;;;;;7.35;3.03;;;12.00;99.90;;;;;;4917456;29;20051;-80
2021/05/26 07:54:55;;;;;;;7.97;2.58;;;12.20;99.90;;;;;;4918518;29;20099;-82
2021/05/26 07:57:38;;;;;;;7.72;3.28;;;12.40;99.90;;;;;;4898123;29;20059;-82
2021/05/26 08:00:16;;;;;;;7.10;2.30;;;12.50;99.90;;;;;;4864275;29;20546;-81
2021/05/26 08:03:06;;;;;;;5.18;2.40;;;12.50;99.90;;;;;;4891682;29;20660;-80
2021/05/26 08:06:02;;;;;;;5.25;2.30;;;12.50;99.90;;;;;;4867086;29;20056;-80
2021/05/26 08:11:56;;;;;;;5.15;2.30;;;12.70;99.90;;;;;;4901864;29;20092;-83
2021/05/26 08:14:31;;;;;;;6.05;2.33;;;12.80;99.90;;;;;;4879143;29;20453;-80
2021/05/26 08:17:01;;;;;;;9.65;2.85;;;12.90;99.90;;;;;;4876987;29;20037;-79
2021/05/26 08:19:36;;;;;;;11.02;2.90;;;13.10;99.90;;;;;;4911587;29;20044;-84
2021/05/26 08:22:22;;;;;;;7.93;2.03;;;13.20;99.90;;;;;;4922280;29;20153;-80
2021/05/26 08:25:24;;;;;;;3.40;1.63;;;13.30;99.90;;;;;;4930784;29;20056;-82
2021/05/26 08:28:16;;;;;;;5.57;1.48;;;13.40;99.90;;;;;;4904110;28;20526;-79
2021/05/26 08:30:54;;;;;;;3.97;1.30;;;13.50;99.90;;;;;;4953915;28;20043;-80
2021/05/26 08:33:26;;;;;;;1.45;0.98;;;13.50;99.90;;;;;;4935599;28;20078;-82
2021/05/26 08:35:53;;;;;;;2.70;1.50;;;13.30;99.90;;;;;;4968493;28;20043;-81
2021/05/26 08:38:38;;;;;;;3.95;1.63;;;13.10;99.90;;;;;;4967683;28;20051;-80
2021/05/26 08:41:33;;;;;;;6.63;1.60;;;12.90;99.90;;;;;;4952220;28;20427;-81
2021/05/26 08:44:21;;;;;;;12.38;2.42;;;12.70;99.90;;;;;;4957723;28;20037;-80
2021/05/26 08:47:15;;;;;;;5.50;1.92;;;12.60;99.90;;;;;;4896233;29;20055;-80
2021/05/26 08:50:02;;;;;;;3.85;1.60;;;12.40;99.90;;;;;;4913028;29;20420;-81
2021/05/26 08:52:50;;;;;;;6.82;1.70;;;12.40;99.90;;;;;;4925721;29;20048;-81
2021/05/26 08:55:22;;;;;;;3.88;1.90;;;12.40;99.90;;;;;;4914480;29;20134;-80
2021/05/26 08:58:14;;;;;;;5.68;1.50;;;12.20;99.90;;;;;;4910610;29;20130;-81
2021/05/26 09:01:13;;;;;;;4.72;1.13;;;12.20;99.90;;;;;;4916244;29;20080;-80
2021/05/26 09:03:51;;;;;;;4.60;1.23;;;12.10;99.90;;;;;;4944595;28;20069;-84
2021/05/26 09:06:42;;;;;;;3.97;1.20;;;12.00;99.90;;;;;;4984873;28;20054;-80
2021/05/26 09:09:51;;;;;;;2.75;1.02;;;12.10;99.90;;;;;;4968870;28;20048;-80
2021/05/26 09:16:33;;;;;;;1.67;1.08;;;12.30;99.90;;;;;;4917440;29;20047;-81
2021/05/26 09:19:32;;;;;;;3.35;1.10;;;12.30;99.90;;;;;;4836531;29;20625;-82
2021/05/26 09:22:23;;;;;;;4.53;0.70;;;12.10;99.90;;;;;;4837012;29;20060;-81
2021/05/26 09:25:53;;;;;;;2.72;0.90;;;12.10;99.90;;;;;;4797110;29;20498;-81
2021/05/26 09:28:36;;;;;;;0.85;0.77;;;12.30;99.90;;;;;;4800245;29;20051;-81
2021/05/26 09:31:36;;;;;;;1.75;0.70;;;12.60;99.90;;;;;;4778675;30;20556;-82
2021/05/26 09:34:06;;;;;;;1.80;0.70;;;12.90;99.90;;;;;;4774321;30;20051;-81
2021/05/26 09:37:11;;;;;;;1.05;0.70;;;12.90;99.90;;;;;;4777387;30;20055;-81
2021/05/26 09:40:13;;;;;;;4.18;1.35;;;12.70;99.90;;;;;;4725939;30;20052;-82
2021/05/26 09:43:15;;;;;;;2.15;0.52;;;12.70;99.90;;;;;;4743933;30;20111;-83
2021/05/26 09:49:31;;;;;;;1.08;0.30;;;13.00;99.90;;;;;;4816678;29;20644;-80
2021/05/26 09:52:59;;;;;;;11.52;0.80;;;13.30;99.90;;;;;;4832890;29;20057;-81
2021/05/26 09:55:55;;;;;;;5.40;0.40;;;13.10;99.90;;;;;;4805843;29;20086;-81
2021/05/26 09:58:29;;;;;;;4.15;0.50;;;12.80;99.90;;;;;;4813326;29;20053;-81
2021/05/26 10:01:32;;;;;;;0.85;0.40;;;12.80;99.90;;;;;;4868068;29;20055;-80
2021/05/26 10:04:09;;;;;;;0.52;0.13;;;12.90;99.90;;;;;;4862687;29;20045;-81
2021/05/26 10:06:53;;;;;;;0.63;0.40;;;13.10;99.90;;;;;;4845856;29;20105;-84
2021/05/26 10:09:34;;;;;;;1.52;0.28;;;13.40;99.90;;;;;;4850134;29;20144;-81
2021/05/26 10:12:16;;;;;;;0.40;0.40;;;13.40;99.90;;;;;;4901119;29;20146;-80
2021/05/26 10:14:51;;;;;;;0.15;0.15;;;13.40;99.90;;;;;;4921401;28;20393;-84
2021/05/26 10:17:50;;;;;;;2.05;0.32;;;13.40;99.90;;;;;;4931728;29;20071;-80
2021/05/26 10:20:21;;;;;;;1.17;0.40;;;13.50;99.90;;;;;;4999215;28;20046;-81
2021/05/26 10:22:49;;;;;;;1.00;0.35;;;13.50;99.90;;;;;;5026469;28;20034;-83
2021/05/26 10:29:01;;;;;;;2.97;0.45;;;13.10;99.90;;;;;;4963357;28;20558;-82
2021/05/26 10:31:38;;;;;;;1.17;0.40;;;13.20;99.90;;;;;;4941813;28;20046;-81
2021/05/26 10:34:49;;;;;;;1.63;0.50;;;13.40;99.90;;;;;;4929832;29;20054;-81
2021/05/26 10:37:40;;;;;;;1.65;0.50;;;13.50;99.90;;;;;;4944411;28;20106;-78
2021/05/26 10:40:43;;;;;;;0.65;0.47;;;13.80;99.90;;;;;;4916942;29;20047;-79
2021/05/26 10:43:21;;;;;;;2.13;0.50;;;14.00;99.90;;;;;;4953369;28;20064;-79
2021/05/26 10:45:53;;;;;;;1.45;0.55;;;13.90;99.90;;;;;;4985524;28;20050;-82
2021/05/26 10:48:40;;;;;;;0.80;0.40;;;13.90;99.90;;;;;;4968062;28;20054;-79
2021/05/26 10:51:52;;;;;;;0.65;0.38;;;14.10;99.90;;;;;;4977288;28;20066;-79
2021/05/26 10:54:40;;;;;;;0.22;0.22;;;14.30;99.90;;;;;;4973608;28;20562;-79
2021/05/26 10:57:08;;;;;;;2.05;0.32;;;14.30;99.90;;;;;;4967086;28;20046;-79
2021/05/26 10:59:35;;;;;;;1.90;0.70;;;14.40;99.90;;;;;;4951984;28;20127;-79
2021/05/26 11:02:03;;;;;;;4.55;0.55;;;14.30;99.90;;;;;;4989436;28;20046;-79
2021/05/26 11:04:34;;;;;;;2.25;0.60;;;14.00;99.90;;;;;;4981853;28;20059;-79
2021/05/26 11:07:29;;;;;;;0.77;0.55;;;13.90;99.90;;;;;;4982755;28;20144;-79
2021/05/26 11:10:01;;;;;;;2.30;0.60;;;13.80;99.90;;;;;;5003779;28;20049;-79
2021/05/26 11:13:10;;;;;;;0.73;0.32;;;13.70;99.90;;;;;;5032081;28;20485;-79
2021/05/26 11:15:49;;;;;;;3.90;0.80;;;13.80;99.90;;;;;;5045471;28;20045;-79
2021/05/26 11:21:01;;;;;;;4.00;0.75;;;13.90;99.90;;;;;;5033837;28;20064;-80
2021/05/26 11:23:27;;;;;;;2.38;0.52;;;13.80;99.90;;;;;;5034283;28;20109;-82
2021/05/26 11:25:59;;;;;;;3.28;0.60;;;13.80;99.90;;;;;;5018762;28;20079;-82
2021/05/26 11:28:31;;;;;;;3.40;0.60;;;14.00;99.90;;;;;;4998086;28;20049;-81
2021/05/26 11:31:08;;;;;;;2.38;0.68;;;14.20;99.90;;;;;;5027767;28;20045;-80
2021/05/26 11:33:35;;;;;;;2.95;0.63;;;14.40;99.90;;;;;;5051043;28;20041;-81
2021/05/26 11:36:05;;;;;;;;;;;14.60;99.90;;;;;;5034146;28;20087;-80
2021/05/26 11:38:32;;;;;;;1.35;0.88;;;14.60;99.90;;;;;;5051665;28;19925;-81
2021/05/26 11:41:00;;;;;;;2.65;0.68;;;14.70;99.90;;;;;;5033302;28;20049;-82
2021/05/26 11:43:30;;;;;;;2.58;0.60;;;14.50;99.90;;;;;;5017600;28;20049;-80
2021/05/26 11:46:04;;;;;;;;;;;14.20;99.90;;;;;;5033953;28;20049;-81
2021/05/26 11:48:30;;;;;;;2.55;0.73;;;14.20;99.90;;;;;;5050951;28;20015;-80
2021/05/26 11:50:56;;;;;;;1.63;0.68;;;14.30;99.90;;;;;;4999914;28;20564;-80
2021/05/26 11:53:23;;;;;;;1.65;0.60;;;14.50;99.90;;;;;;5033208;28;20036;-79
2021/05/26 11:55:52;;;;;;;1.45;0.60;;;14.60;99.90;;;;;;5016979;28;20461;-79
2021/05/26 11:58:47;;;;;;;2.42;0.73;;;14.60;99.90;;;;;;5050078;28;20041;-80
2021/05/26 12:01:14;;;;;;;1.38;0.65;;;14.80;99.90;;;;;;5029535;28;20041;-80
2021/05/26 12:03:41;;;;;;;2.17;0.70;;;14.90;99.90;;;;;;5013801;28;20477;-80
2021/05/26 12:06:06;;;;;;;3.60;1.15;;;14.90;99.90;;;;;;5048621;28;20044;-80
2021/05/26 12:08:42;;;;;;;2.85;0.77;;;14.90;99.90;;;;;;5031086;28;20041;-79
2021/05/26 12:11:11;;;;;;;1.55;0.70;;;15.00;99.90;;;;;;5049532;28;20071;-79
2021/05/26 12:13:47;;;;;;;2.95;0.77;;;15.10;99.90;;;;;;5033220;28;20095;-79
2021/05/26 12:16:15;;;;;;;4.57;0.88;;;15.10;99.90;;;;;;5047204;28;20437;-79
2021/05/26 12:18:49;;;;;;;4.68;0.88;;;15.00;99.90;;;;;;5033132;28;20116;-79
2021/05/26 12:21:16;;;;;;;2.83;1.10;;;14.90;99.90;;;;;;5032092;28;20251;-79
2021/05/26 12:23:44;;;;;;;6.85;1.23;;;14.90;99.90;;;;;;5041731;28;20110;-79
2021/05/26 12:26:21;;;;;;;2.50;0.98;;;14.70;99.90;;;;;;5032371;28;20496;-79
2021/05/26 12:28:47;;;;;;;1.52;0.75;;;14.50;99.90;;;;;;5024394;28;20040;-80
2021/05/26 12:31:18;;;;;;;3.30;1.10;;;14.40;99.90;;;;;;5015713;28;20582;-79
2021/05/26 12:33:50;;;;;;;4.78;1.40;;;14.50;99.90;;;;;;5033353;28;20767;-80
2021/05/26 12:36:16;;;;;;;3.97;1.60;;;14.40;99.90;;;;;;5031292;28;20056;-79
2021/05/26 12:38:44;;;;;;;3.30;1.10;;;14.20;99.90;;;;;;5016553;28;20397;-80
2021/05/26 12:41:20;;;;;;;4.65;1.25;;;13.80;99.90;;;;;;5031835;28;20049;-79
2021/05/26 12:43:46;;;;;;;4.63;1.55;;;13.60;99.90;;;;;;5050370;28;20037;-79
2021/05/26 12:46:12;;;;;;;3.70;0.80;;;13.40;99.90;;;;;;5015084;28;20906;-79
2021/05/26 12:48:38;;;;;;;7.00;1.10;;;13.20;99.90;;;;;;5032670;28;20049;-78
2021/05/26 12:51:18;;;;;;;3.00;1.05;;;13.10;99.90;;;;;;5031807;28;20041;-78
2021/05/26 12:53:45;;;;;;;3.72;1.10;;;12.90;99.90;;;;;;5050189;28;20052;-80
2021/05/26 12:56:22;;;;;;;5.60;1.27;;;12.80;99.90;;;;;;5049418;28;20464;-80
2021/05/26 12:58:48;;;;;;;7.63;1.42;;;12.70;99.90;;;;;;5049280;28;20095;-79
2021/05/26 13:01:14;;;;;;;7.18;1.17;;;12.60;99.90;;;;;;5030712;28;20044;-79
2021/05/26 13:03:41;;;;;;;5.35;1.25;;;12.40;99.90;;;;;;5031699;28;20112;-80
2021/05/26 13:06:17;;;;;;;1.83;0.88;;;12.40;99.90;;;;;;5030548;28;20065;-80
2021/05/26 13:09:00;;;;;;;3.97;1.00;;;12.40;99.90;;;;;;5015272;28;20053;-79
2021/05/26 13:11:47;;;;;;;4.28;0.95;;;12.40;99.90;;;;;;5036283;28;20048;-79
2021/05/26 13:14:26;;;;;;;2.83;1.40;;;12.40;99.90;;;;;;5049199;28;20456;-80
2021/05/26 13:16:52;;;;;;;3.47;1.10;;;12.40;99.90;;;;;;5049830;28;20067;-79
2021/05/26 13:19:18;;;;;;;4.13;1.40;;;12.40;99.90;;;;;;5048240;28;20064;-79
2021/05/26 13:21:45;;;;;;;5.38;0.95;;;12.40;99.90;;;;;;5032016;28;20127;-79
2021/05/26 13:24:11;;;;;;;6.40;1.10;;;12.40;99.90;;;;;;5031220;28;20123;-79
2021/05/26 13:26:37;;;;;;;2.45;0.95;;;12.50;99.90;;;;;;5032011;28;20124;-79
2021/05/26 13:29:03;;;;;;;4.40;1.25;;;12.60;99.90;;;;;;5049100;28;20048;-80
2021/05/26 13:31:29;;;;;;;8.40;1.35;;;12.50;99.90;;;;;;5048527;28;20133;-79
2021/05/26 13:33:55;;;;;;;3.08;1.13;;;12.50;99.90;;;;;;5049701;28;20076;-79
2021/05/26 13:36:22;;;;;;;3.72;1.30;;;12.60;99.90;;;;;;5046252;28;20069;-79
2021/05/26 13:38:47;;;;;;;4.40;1.00;;;12.60;99.90;;;;;;5032139;28;20101;-79
2021/05/26 13:41:13;;;;;;;8.82;1.33;;;12.70;99.90;;;;;;5030802;28;20049;-79
2021/05/26 13:43:39;;;;;;;6.18;1.58;;;12.60;99.90;;;;;;5031287;28;20123;-79
2021/05/26 13:46:05;;;;;;;7.88;1.55;;;12.70;99.90;;;;;;5030847;28;20469;-80
2021/05/26 13:48:30;;;;;;;6.00;1.45;;;12.80;99.90;;;;;;5014579;28;20072;-79
2021/05/26 13:50:56;;;;;;;9.27;1.73;;;12.80;99.90;;;;;;5031939;28;20060;-79
2021/05/26 13:53:22;;;;;;;2.10;0.93;;;12.80;99.90;;;;;;5030460;28;20148;-79
2021/05/26 13:55:48;;;;;;;5.97;2.03;;;12.80;99.90;;;;;;5049162;28;20048;-79
2021/05/26 13:58:15;;;;;;;7.20;1.38;;;12.80;99.90;;;;;;5047761;28;20386;-79
2021/05/26 14:00:42;;;;;;;3.30;1.10;;;12.70;99.90;;;;;;5031287;28;20033;-79
2021/05/26 14:03:09;;;;;;;4.15;1.23;;;12.60;99.90;;;;;;5030260;28;20463;-81
2021/05/26 14:05:35;;;;;;;3.28;1.40;;;12.60;99.90;;;;;;5048866;28;20659;-80
2021/05/26 14:08:01;;;;;;;5.38;1.30;;;12.50;99.90;;;;;;5013987;28;20144;-79
2021/05/26 14:10:27;;;;;;;4.20;1.10;;;12.40;99.90;;;;;;5030481;28;20068;-79
2021/05/26 14:12:58;;;;;;;5.65;1.42;;;12.30;99.90;;;;;;5049011;28;20488;-79
2021/05/26 14:15:27;;;;;;;3.50;1.55;;;12.10;99.90;;;;;;5013254;28;20049;-80
2021/05/26 14:17:56;;;;;;;4.80;1.35;;;12.10;99.90;;;;;;5044264;28;20621;-79
2021/05/26 14:20:22;;;;;;;5.65;1.70;;;12.00;99.90;;;;;;5043706;28;20041;-79
2021/05/26 14:22:48;;;;;;;9.65;2.03;;;11.80;99.90;;;;;;5024046;28;20049;-80
2021/05/26 14:25:18;;;;;;;10.40;1.75;;;11.70;99.90;;;;;;5026259;28;20404;-80
2021/05/26 14:27:47;;;;;;;6.93;2.25;;;11.60;99.90;;;;;;5043297;28;20056;-80
2021/05/26 14:30:14;;;;;;;11.77;2.05;;;11.40;99.90;;;;;;5026631;28;20049;-81
2021/05/26 14:32:46;;;;;;;13.38;1.85;;;11.20;99.90;;;;;;5043762;28;20037;-79
2021/05/26 14:35:15;;;;;;;7.22;1.95;;;11.00;99.90;;;;;;5043863;28;20122;-81
2021/05/26 14:37:55;;;;;;;5.40;1.98;;;10.90;99.90;;;;;;5044473;28;20457;-81
2021/05/26 14:40:21;;;;;;;;;;;10.80;99.90;;;;;;5026577;28;20535;-81
2021/05/26 14:42:47;;;;;;;8.45;2.25;;;10.70;99.90;;;;;;5027278;28;19921;-81
2021/05/26 14:45:16;;;;;;;8.63;2.30;;;10.60;99.90;;;;;;5002696;28;20049;-82
2021/05/26 14:47:42;;;;;;;5.47;2.33;;;10.60;99.90;;;;;;5027276;28;20101;-82
2021/05/26 14:50:08;;;;;;;6.82;2.38;;;10.60;99.90;;;;;;5010768;28;20056;-82
2021/05/26 14:52:34;;;;;;;8.10;2.75;;;10.60;99.90;;;;;;5026972;28;20053;-82
2021/05/26 14:55:00;;;;;;;8.40;3.08;;;10.50;99.90;;;;;;5026553;28;20055;-82
2021/05/26 14:57:27;;;;;;;7.90;1.88;;;10.50;99.90;;;;;;5010366;28;20049;-82
2021/05/26 14:59:53;;;;;;;8.40;2.70;;;10.50;99.90;;;;;;5010949;28;20047;-79
2021/05/26 15:02:19;;;;;;;7.75;2.67;;;10.50;99.90;;;;;;5026441;28;20057;-78
2021/05/26 15:04:45;;;;;;;8.65;2.72;;;10.50;99.90;;;;;;5027178;28;20040;-77